Loysville, Pennsylvania
Current Conditions -  °F | °C
As of 8:56 AM on Friday 24 Oct 2014 (Local Time) from KCXY Reporting Station
Scattered Clouds Scattered Clouds  
Wind Chill: 56°   Ceiling: Unl
Heat Index: 56°   Visibility: 10mi
Dew Point: 43°   Wind: 10mph
Humidity: 62%   Direction: 270°W
Pressure: 29.95"   Gusts: NA
Location:  40.37°N, 77.34°W
Report Text: KCXY 241256Z 27009KT 10SM SCT042 13/06 A2995 RMK AO2 SLP143 T01330061
Loading
Personal Weather Stations






























Interactive Weather Map
Tropical Storm Tracking
New forecast layout! Learn more

10-Day Weather Forecast

Advertisements
Track Severe Weather on mobile